Time;durP1;ratioP1;P1;durP2;ratioP2;P2;SDS_P1;SDS_P2;PMS_P1;PMS_P2;Temp;Humidity;BMP_temperature;BMP_pressure;BME280_temperature;BME280_humidity;BME280_pressure;Samples;Min_cycle;Max_cycle;Signal;HPM_P1;HPM_P2
2023/03/02 00:00:55;;;;;;;;;;;;;;;2.57;58.38;98249.84;5099617;28;19924;-55
2023/03/02 00:03:23;;;;;;;;;;;;;;;2.69;58.30;98240.84;5102224;28;19931;-55
2023/03/02 00:05:51;;;;;;;;;;;;;;;2.49;58.51;98236.88;5095717;28;20497;-55
2023/03/02 00:08:19;;;;;;;;;;;;;;;2.52;58.52;98231.00;5099634;28;19924;-56
2023/03/02 00:10:48;;;;;;;;;;;;;;;2.57;58.57;98228.38;5087300;28;19924;-54
2023/03/02 00:13:16;;;;;;;;;;;;;;;2.48;58.87;98234.44;5108264;28;19931;-55
2023/03/02 00:15:43;;;;;;;;;;;;;;;2.50;59.10;98233.13;5100579;28;19928;-55
2023/03/02 00:18:11;;;;;;;;;;;;;;;2.44;59.41;98233.31;5085230;28;19928;-55
2023/03/02 00:20:40;;;;;;;;;;;;;;;2.40;59.29;98227.66;5094667;28;19925;-55
2023/03/02 00:23:07;;;;;;;;;;;;;;;2.47;59.34;98233.63;5111504;28;19923;-55
2023/03/02 00:25:35;;;;;;;;;;;;;;;2.48;59.40;98223.72;5100537;28;19934;-54
2023/03/02 00:28:05;;;;;;;;;;;;;;;2.53;59.39;98226.47;5110545;28;20308;-55
2023/03/02 00:30:35;;;;;;;;;;;;;;;2.42;59.54;98225.53;5100202;28;20450;-55
2023/03/02 00:33:02;;;;;;;;;;;;;;;2.32;60.30;98215.50;5088887;28;20005;-54
2023/03/02 00:35:30;;;;;;;;;;;;;;;2.30;60.63;98227.53;5099184;28;20428;-54
2023/03/02 00:37:58;;;;;;;;;;;;;;;2.38;60.18;98216.38;5087564;28;19924;-54
2023/03/02 00:40:26;;;;;;;;;;;;;;;2.29;60.40;98216.00;5113031;28;19924;-54
2023/03/02 00:42:54;;;;;;;;;;;;;;;2.31;60.69;98223.78;5087560;28;19932;-55
2023/03/02 00:45:23;;;;;;;;;;;;;;;2.31;60.70;98213.88;5106716;28;19927;-54
2023/03/02 00:47:51;;;;;;;;;;;;;;;2.33;60.74;98210.94;5103104;28;19966;-54
2023/03/02 00:50:20;;;;;;;;;;;;;;;2.34;60.58;98212.56;5091530;28;19932;-55
2023/03/02 00:52:48;;;;;;;;;;;;;;;2.15;61.13;98196.00;5099689;28;20432;-54
2023/03/02 00:55:16;;;;;;;;;;;;;;;2.27;61.00;98210.06;5084970;28;19973;-56
2023/03/02 00:57:53;;;;;;;;;;;;;;;2.41;60.26;98202.47;5099840;28;19923;-54
2023/03/02 01:00:28;;;;;;;;;;;;;;;2.39;60.49;98199.22;5093596;28;20522;-55
2023/03/02 01:03:00;;;;;;;;;;;;;;;2.26;61.02;98189.69;5101131;28;19932;-56
2023/03/02 01:05:28;;;;;;;;;;;;;;;2.19;61.20;98190.97;5095165;28;19930;-55
2023/03/02 01:07:57;;;;;;;;;;;;;;;2.17;61.44;98185.81;5074413;28;19939;-55
2023/03/02 01:10:25;;;;;;;;;;;;;;;2.25;61.22;98179.22;5088426;28;19923;-54
2023/03/02 01:12:55;;;;;;;;;;;;;;;2.34;61.09;98170.50;5103321;28;20442;-55
2023/03/02 01:15:22;;;;;;;;;;;;;;;2.25;61.38;98168.50;5092753;28;19931;-56
2023/03/02 01:17:51;;;;;;;;;;;;;;;2.28;61.53;98170.66;5101033;28;19935;-55
2023/03/02 01:20:20;;;;;;;;;;;;;;;2.23;61.56;98163.38;5098756;28;20293;-54
2023/03/02 01:22:48;;;;;;;;;;;;;;;2.26;61.75;98164.75;5090743;28;19928;-55
2023/03/02 01:25:17;;;;;;;;;;;;;;;2.17;61.74;98159.03;5082693;28;19976;-54
2023/03/02 01:27:45;;;;;;;;;;;;;;;2.27;61.59;98161.00;5101792;28;20369;-55
2023/03/02 01:30:13;;;;;;;;;;;;;;;2.33;61.28;98151.94;5083390;28;19954;-55
2023/03/02 01:32:40;;;;;;;;;;;;;;;2.36;60.91;98146.91;5071197;28;19928;-58
2023/03/02 01:35:10;;;;;;;;;;;;;;;2.25;61.66;98149.75;5074767;28;19988;-55
2023/03/02 01:37:38;;;;;;;;;;;;;;;2.33;61.18;98139.34;5077558;28;20292;-56
2023/03/02 01:40:07;;;;;;;;;;;;;;;2.32;61.39;98136.94;5073155;28;19924;-61
2023/03/02 01:42:37;;;;;;;;;;;;;;;2.28;61.49;98135.81;5093759;28;19925;-55
2023/03/02 01:45:05;;;;;;;;;;;;;;;2.18;61.92;98133.03;5096380;28;19924;-57
2023/03/02 01:47:35;;;;;;;;;;;;;;;2.08;62.18;98144.47;5087192;28;19924;-55
2023/03/02 01:50:22;;;;;;;;;;;;;;;2.29;61.35;98145.47;5095644;28;19924;-58
2023/03/02 01:52:54;;;;;;;;;;;;;;;2.23;61.85;98135.75;5090927;28;19950;-55
2023/03/02 01:55:23;;;;;;;;;;;;;;;2.13;61.86;98135.63;5114786;28;19924;-54
2023/03/02 01:57:52;;;;;;;;;;;;;;;2.26;61.54;98138.75;5112089;28;19935;-55
2023/03/02 02:00:20;;;;;;;;;;;;;;;2.13;61.99;98130.28;5083729;28;19958;-63
2023/03/02 02:02:48;;;;;;;;;;;;;;;2.10;61.83;98135.09;5112617;28;19923;-54
2023/03/02 02:05:18;;;;;;;;;;;;;;;2.12;61.69;98132.16;5106885;28;19925;-54
2023/03/02 02:07:47;;;;;;;;;;;;;;;2.18;61.77;98133.03;5100966;28;20425;-55
2023/03/02 02:10:17;;;;;;;;;;;;;;;2.12;61.76;98128.66;5103722;28;20373;-57
2023/03/02 02:12:45;;;;;;;;;;;;;;;2.22;61.59;98126.91;5109182;28;19947;-55
2023/03/02 02:15:13;;;;;;;;;;;;;;;2.26;61.34;98124.53;5086621;28;19972;-55
2023/03/02 02:17:41;;;;;;;;;;;;;;;2.18;61.65;98124.97;5084231;28;19928;-55
2023/03/02 02:20:13;;;;;;;;;;;;;;;2.07;62.05;98126.75;5106388;28;19962;-56
2023/03/02 02:22:46;;;;;;;;;;;;;;;2.22;61.37;98126.09;5100595;28;20300;-55
2023/03/02 02:25:16;;;;;;;;;;;;;;;2.22;61.88;98126.09;5113037;28;20091;-57
2023/03/02 02:27:45;;;;;;;;;;;;;;;2.14;61.87;98110.47;5089042;28;19928;-55
2023/03/02 02:30:13;;;;;;;;;;;;;;;2.01;61.95;98111.66;5087474;28;19931;-54
2023/03/02 02:32:41;;;;;;;;;;;;;;;2.14;61.77;98110.47;5090830;28;19934;-55
2023/03/02 02:35:10;;;;;;;;;;;;;;;2.15;61.38;98107.53;5092033;28;19924;-54
2023/03/02 02:37:39;;;;;;;;;;;;;;;2.10;62.21;98107.50;5084948;28;19931;-55
2023/03/02 02:40:11;;;;;;;;;;;;;;;2.16;61.72;98111.84;5081337;28;20042;-56
2023/03/02 02:42:39;;;;;;;;;;;;;;;2.01;62.28;98112.47;5091479;28;19928;-54
2023/03/02 02:45:16;;;;;;;;;;;;;;;2.09;62.02;98106.69;5081311;28;20262;-55
2023/03/02 02:47:44;;;;;;;;;;;;;;;2.02;62.32;98108.72;5087939;28;20019;-54
2023/03/02 02:50:16;;;;;;;;;;;;;;;2.02;62.11;98113.28;5107951;28;20025;-54
2023/03/02 02:52:44;;;;;;;;;;;;;;;2.07;61.93;98099.94;5106066;28;20452;-55
2023/03/02 02:55:13;;;;;;;;;;;;;;;2.12;62.08;98107.22;5086465;28;19924;-55
2023/03/02 02:57:41;;;;;;;;;;;;;;;2.02;62.21;98095.34;5109409;28;19947;-55
2023/03/02 03:00:14;;;;;;;;;;;;;;;2.02;62.08;98103.38;5074142;28;19958;-55
2023/03/02 03:02:43;;;;;;;;;;;;;;;2.00;61.87;98105.50;5079401;28;20350;-55
2023/03/02 03:05:13;;;;;;;;;;;;;;;1.95;62.51;98102.75;5069871;28;20323;-55
2023/03/02 03:07:41;;;;;;;;;;;;;;;2.15;61.77;98106.75;5065266;28;19928;-54
2023/03/02 03:10:11;;;;;;;;;;;;;;;1.97;61.96;98106.03;5070287;28;19961;-58
2023/03/02 03:12:38;;;;;;;;;;;;;;;1.96;62.21;98108.94;5066450;28;20404;-54
2023/03/02 03:15:07;;;;;;;;;;;;;;;1.93;62.14;98112.94;5073907;28;19935;-55
2023/03/02 03:17:36;;;;;;;;;;;;;;;1.97;62.16;98106.03;5106937;28;19981;-55
2023/03/02 03:20:07;;;;;;;;;;;;;;;1.96;62.29;98107.06;5088140;28;19935;-54
2023/03/02 03:22:38;;;;;;;;;;;;;;;2.10;61.91;98110.16;5098281;28;20382;-54
2023/03/02 03:25:09;;;;;;;;;;;;;;;2.03;62.04;98104.22;5090666;28;20364;-54
2023/03/02 03:27:37;;;;;;;;;;;;;;;2.09;62.03;98108.56;5102425;28;19939;-55
2023/03/02 03:30:06;;;;;;;;;;;;;;;2.13;61.51;98108.84;5084114;28;19963;-55
2023/03/02 03:32:37;;;;;;;;;;;;;;;1.97;61.99;98111.38;5083656;28;19977;-54
2023/03/02 03:35:07;;;;;;;;;;;;;;;2.13;61.26;98111.53;5087199;28;20380;-55
2023/03/02 03:37:36;;;;;;;;;;;;;;;1.98;61.71;98096.91;5104648;28;19962;-54
2023/03/02 03:40:05;;;;;;;;;;;;;;;2.10;61.61;98108.28;5104760;28;19960;-55
2023/03/02 03:42:33;;;;;;;;;;;;;;;2.04;61.69;98105.81;5078010;28;19945;-55
2023/03/02 03:45:01;;;;;;;;;;;;;;;2.05;61.66;98110.91;5096820;28;19954;-58
2023/03/02 03:47:33;;;;;;;;;;;;;;;1.98;61.95;98102.28;5081796;28;19977;-55
2023/03/02 03:50:03;;;;;;;;;;;;;;;2.01;61.59;98104.44;5084349;28;19998;-54
2023/03/02 03:52:32;;;;;;;;;;;;;;;1.99;61.80;98098.53;5075063;28;19924;-55
2023/03/02 03:55:10;;;;;;;;;;;;;;;2.05;61.43;98108.25;5092859;28;20066;-57
2023/03/02 03:57:38;;;;;;;;;;;;;;;2.04;61.75;98111.19;5085968;28;19983;-57
2023/03/02 04:00:09;;;;;;;;;;;;;;;1.90;62.08;98102.69;5100429;28;19939;-55
2023/03/02 04:02:40;;;;;;;;;;;;;;;1.84;62.67;98106.38;5105767;28;19961;-55
2023/03/02 04:05:10;;;;;;;;;;;;;;;1.80;62.54;98105.25;5089674;28;20053;-54
2023/03/02 04:07:38;;;;;;;;;;;;;;;1.77;63.09;98100.41;5087048;28;20350;-58
2023/03/02 04:10:08;;;;;;;;;;;;;;;1.74;63.23;98098.22;5109213;28;20766;-54
2023/03/02 04:12:38;;;;;;;;;;;;;;;1.76;63.12;98096.94;5098772;28;19938;-54
2023/03/02 04:15:07;;;;;;;;;;;;;;;1.70;63.17;98094.41;5079257;28;19950;-55
2023/03/02 04:17:35;;;;;;;;;;;;;;;1.68;63.38;98097.34;5092427;28;19966;-55
2023/03/02 04:20:06;;;;;;;;;;;;;;;1.72;63.08;98087.78;5087998;28;20046;-54
2023/03/02 04:22:36;;;;;;;;;;;;;;;1.72;63.30;98098.47;5083666;28;19958;-56
2023/03/02 04:25:04;;;;;;;;;;;;;;;1.81;63.11;98091.63;5083836;28;19931;-54
2023/03/02 04:27:32;;;;;;;;;;;;;;;1.87;62.60;98091.69;5107398;28;20309;-54
2023/03/02 04:30:07;;;;;;;;;;;;;;;1.91;62.61;98087.44;5080769;28;19943;-57
2023/03/02 04:32:35;;;;;;;;;;;;;;;1.80;63.10;98079.28;5101334;28;20164;-56
2023/03/02 04:35:02;;;;;;;;;;;;;;;1.81;63.10;98085.44;5090326;28;19924;-55
2023/03/02 04:37:30;;;;;;;;;;;;;;;1.74;63.21;98080.28;5088947;28;20331;-56
2023/03/02 04:40:00;;;;;;;;;;;;;;;1.71;63.68;98085.34;5085264;28;20307;-54
2023/03/02 04:42:28;;;;;;;;;;;;;;;1.74;63.32;98084.84;5098921;28;19935;-55
2023/03/02 04:44:56;;;;;;;;;;;;;;;1.86;63.40;98082.81;5100030;28;19938;-54
2023/03/02 04:47:24;;;;;;;;;;;;;;;1.86;63.12;98082.81;5096583;28;19958;-55
2023/03/02 04:49:56;;;;;;;;;;;;;;;1.95;62.56;98084.00;5104376;28;19961;-55
2023/03/02 04:52:24;;;;;;;;;;;;;;;1.83;62.94;98088.69;5103377;28;19931;-55
2023/03/02 04:54:52;;;;;;;;;;;;;;;1.77;63.59;98079.78;5096428;28;19973;-55
2023/03/02 04:57:21;;;;;;;;;;;;;;;1.83;63.17;98077.97;5107650;28;19928;-54
2023/03/02 04:59:49;;;;;;;;;;;;;;;1.76;63.16;98080.06;5100608;28;19931;-55
2023/03/02 05:02:17;;;;;;;;;;;;;;;1.75;63.09;98073.88;5095312;28;19936;-55
2023/03/02 05:04:45;;;;;;;;;;;;;;;1.92;62.55;98087.22;5101931;28;19924;-56
2023/03/02 05:07:13;;;;;;;;;;;;;;;1.74;63.48;98079.47;5104772;28;19924;-55
2023/03/02 05:09:41;;;;;;;;;;;;;;;1.74;63.52;98082.16;5098727;28;19958;-55
2023/03/02 05:12:08;;;;;;;;;;;;;;;1.86;63.21;98077.47;5101525;28;19942;-55
2023/03/02 05:14:37;;;;;;;;;;;;;;;1.91;62.67;98074.84;5097724;28;20373;-56
2023/03/02 05:17:05;;;;;;;;;;;;;;;1.77;63.09;98070.97;5102314;28;19924;-57
2023/03/02 05:19:33;;;;;;;;;;;;;;;1.74;63.31;98077.59;5106964;28;20364;-55
2023/03/02 05:22:01;;;;;;;;;;;;;;;1.77;63.45;98084.34;5101078;28;19954;-58
2023/03/02 05:24:28;;;;;;;;;;;;;;;1.78;63.16;98070.69;5102158;28;19924;-55
2023/03/02 05:26:56;;;;;;;;;;;;;;;1.81;63.10;98074.72;5108485;28;19958;-58
2023/03/02 05:29:24;;;;;;;;;;;;;;;1.90;63.05;98083.94;5099769;28;19924;-54
2023/03/02 05:31:57;;;;;;;;;;;;;;;1.86;63.26;98076.66;5096017;28;20326;-55
2023/03/02 05:34:24;;;;;;;;;;;;;;;1.78;63.39;98077.94;5091467;28;19954;-66
2023/03/02 05:36:52;;;;;;;;;;;;;;;1.88;63.22;98077.25;5106908;28;19931;-58
2023/03/02 05:39:20;;;;;;;;;;;;;;;1.87;63.37;98080.97;5100407;28;19931;-54
2023/03/02 05:41:48;;;;;;;;;;;;;;;1.85;63.13;98081.22;5111807;28;19942;-55
2023/03/02 05:44:15;;;;;;;;;;;;;;;1.82;63.28;98084.41;5107022;28;20048;-54
2023/03/02 05:46:43;;;;;;;;;;;;;;;1.88;63.32;98079.91;5102747;28;19958;-54
2023/03/02 05:49:12;;;;;;;;;;;;;;;1.86;63.24;98084.69;5104753;28;19938;-55
2023/03/02 05:51:40;;;;;;;;;;;;;;;1.90;63.24;98092.00;5110380;28;19928;-55
2023/03/02 05:54:08;;;;;;;;;;;;;;;1.91;63.15;98095.47;5108270;28;19963;-54
2023/03/02 05:56:36;;;;;;;;;;;;;;;1.90;63.38;98089.31;5104801;28;19946;-55
2023/03/02 05:59:04;;;;;;;;;;;;;;;1.94;63.19;98095.78;5105749;28;19934;-55
2023/03/02 06:01:31;;;;;;;;;;;;;;;1.93;62.94;98094.19;5094234;28;19961;-56
2023/03/02 06:04:02;;;;;;;;;;;;;;;2.03;62.51;98099.66;5105494;28;19969;-55
2023/03/02 06:06:31;;;;;;;;;;;;;;;1.91;62.87;98104.31;5085577;28;19965;-55
2023/03/02 06:09:01;;;;;;;;;;;;;;;1.95;62.94;98107.31;5108244;28;19938;-54
2023/03/02 06:11:30;;;;;;;;;;;;;;;1.97;62.99;98111.38;5088632;28;19973;-59
2023/03/02 06:13:58;;;;;;;;;;;;;;;2.09;63.19;98109.38;5102628;28;19960;-54
2023/03/02 06:16:26;;;;;;;;;;;;;;;2.07;62.82;98110.66;5095311;28;19958;-55
2023/03/02 06:18:54;;;;;;;;;;;;;;;1.99;62.89;98109.25;5105853;28;19934;-54
2023/03/02 06:21:22;;;;;;;;;;;;;;;2.18;62.33;98116.94;5106692;28;19935;-54
2023/03/02 06:23:51;;;;;;;;;;;;;;;2.12;62.81;98117.94;5102249;28;19931;-55
2023/03/02 06:26:19;;;;;;;;;;;;;;;2.05;62.88;98118.16;5082091;28;19965;-56
2023/03/02 06:28:47;;;;;;;;;;;;;;;2.15;62.48;98117.47;5094068;28;19981;-55
2023/03/02 06:31:20;;;;;;;;;;;;;;;2.21;62.65;98111.09;5099284;28;19958;-54
2023/03/02 06:33:48;;;;;;;;;;;;;;;2.19;62.72;98119.38;5098330;28;19943;-54
2023/03/02 06:36:17;;;;;;;;;;;;;;;2.30;61.74;98121.13;5100965;28;19999;-54
2023/03/02 06:38:45;;;;;;;;;;;;;;;2.35;61.99;98118.47;5100719;28;20291;-55
2023/03/02 06:41:14;;;;;;;;;;;;;;;2.32;61.79;98118.16;5106594;28;19958;-54
2023/03/02 06:43:41;;;;;;;;;;;;;;;2.37;61.95;98115.53;5104350;28;19928;-54
2023/03/02 06:46:09;;;;;;;;;;;;;;;2.36;61.71;98119.28;5097728;28;19962;-54
2023/03/02 06:48:37;;;;;;;;;;;;;;;2.39;62.06;98118.75;5104050;28;19959;-55
2023/03/02 06:51:08;;;;;;;;;;;;;;;2.46;61.79;98115.91;5101144;28;19924;-54
2023/03/02 06:53:36;;;;;;;;;;;;;;;2.49;61.48;98118.88;5102455;28;20009;-56
2023/03/02 06:56:04;;;;;;;;;;;;;;;2.47;61.18;98129.06;5104530;28;20366;-55
2023/03/02 06:58:33;;;;;;;;;;;;;;;2.59;61.23;98116.28;5112040;28;19969;-56
2023/03/02 07:01:01;;;;;;;;;;;;;;;2.67;61.02;98114.22;5096891;28;20422;-56
2023/03/02 07:03:29;;;;;;;;;;;;;;;2.65;61.16;98121.69;5098145;28;19958;-55
2023/03/02 07:05:57;;;;;;;;;;;;;;;2.73;60.45;98113.19;5099067;28;20437;-54
2023/03/02 07:08:28;;;;;;;;;;;;;;;2.82;60.44;98117.84;5104259;28;19969;-54
2023/03/02 07:10:56;;;;;;;;;;;;;;;2.86;60.44;98112.75;5111364;28;19942;-55
2023/03/02 07:13:24;;;;;;;;;;;;;;;3.01;59.98;98115.56;5102708;28;19970;-54
2023/03/02 07:15:53;;;;;;;;;;;;;;;2.93;59.67;98097.25;5100663;28;19928;-56
2023/03/02 07:18:22;;;;;;;;;;;;;;;3.07;59.56;98111.84;5109926;28;20402;-55
2023/03/02 07:20:50;;;;;;;;;;;;;;;3.12;58.97;98111.88;5106480;28;19938;-55
2023/03/02 07:23:18;;;;;;;;;;;;;;;3.18;59.65;98119.97;5104752;28;19934;-54
2023/03/02 07:25:45;;;;;;;;;;;;;;;3.30;58.54;98113.34;5102957;28;19931;-55
2023/03/02 07:28:14;;;;;;;;;;;;;;;3.29;58.88;98110.91;5108674;28;20360;-55
2023/03/02 07:30:41;;;;;;;;;;;;;;;3.37;58.79;98107.75;5097335;28;19928;-55
2023/03/02 07:33:11;;;;;;;;;;;;;;;3.38;58.85;98104.00;5103156;28;19958;-57
2023/03/02 07:35:39;;;;;;;;;;;;;;;3.53;58.14;98112.13;5106859;28;19978;-56
2023/03/02 07:38:08;;;;;;;;;;;;;;;3.55;58.33;98112.69;5094644;28;20012;-54
2023/03/02 07:40:36;;;;;;;;;;;;;;;3.71;57.71;98110.88;5107876;28;19976;-55
2023/03/02 07:43:04;;;;;;;;;;;;;;;3.71;57.42;98112.75;5110126;28;19928;-53
2023/03/02 07:45:33;;;;;;;;;;;;;;;3.60;57.67;98101.97;5101698;28;19965;-54
2023/03/02 07:48:01;;;;;;;;;;;;;;;3.55;57.63;98119.94;5108987;28;19924;-54
2023/03/02 07:50:30;;;;;;;;;;;;;;;3.64;57.60;98113.81;5108178;28;19923;-55
2023/03/02 07:52:58;;;;;;;;;;;;;;;3.59;57.79;98116.47;5099111;27;20041;-54
2023/03/02 07:55:26;;;;;;;;;;;;;;;3.53;57.85;98111.34;5100829;28;19934;-56
2023/03/02 07:57:54;;;;;;;;;;;;;;;3.65;58.07;98111.94;5102769;28;19935;-54
2023/03/02 08:00:22;;;;;;;;;;;;;;;3.80;57.79;98111.19;5095098;28;19939;-55
2023/03/02 08:02:50;;;;;;;;;;;;;;;3.92;57.66;98111.78;5100677;28;20041;-54
2023/03/02 08:05:18;;;;;;;;;;;;;;;3.92;57.08;98114.47;5094120;28;20650;-54
2023/03/02 08:07:47;;;;;;;;;;;;;;;4.16;56.95;98120.22;5100138;28;20367;-54
2023/03/02 08:10:18;;;;;;;;;;;;;;;4.19;56.50;98125.03;5106345;28;19924;-54
2023/03/02 08:12:48;;;;;;;;;;;;;;;4.19;56.49;98119.66;5107878;28;19989;-54
2023/03/02 08:15:16;;;;;;;;;;;;;;;4.38;56.05;98120.00;5103959;28;20303;-54
2023/03/02 08:17:44;;;;;;;;;;;;;;;4.29;56.36;98125.06;5083164;28;19938;-55
2023/03/02 08:20:12;;;;;;;;;;;;;;;4.51;55.35;98127.53;5108863;28;19938;-54
2023/03/02 08:22:40;;;;;;;;;;;;;;;4.52;55.81;98123.75;5098453;28;19930;-55
2023/03/02 08:25:09;;;;;;;;;;;;;;;4.62;55.73;98131.06;5092495;28;19946;-54
2023/03/02 08:27:39;;;;;;;;;;;;;;;4.63;55.81;98130.78;5099943;28;19932;-54
2023/03/02 08:30:07;;;;;;;;;;;;;;;4.76;55.48;98124.06;5092831;28;20687;-55
2023/03/02 08:32:36;;;;;;;;;;;;;;;5.03;54.52;98129.19;5101316;28;20284;-55
2023/03/02 08:35:04;;;;;;;;;;;;;;;5.08;53.76;98121.13;5105427;28;20405;-54
2023/03/02 08:37:32;;;;;;;;;;;;;;;5.08;54.15;98134.59;5095064;28;19928;-55
2023/03/02 08:40:00;;;;;;;;;;;;;;;4.93;54.29;98134.56;5101719;28;19928;-54
2023/03/02 08:42:29;;;;;;;;;;;;;;;4.98;54.06;98121.13;5085684;28;19927;-54
2023/03/02 08:44:57;;;;;;;;;;;;;;;5.27;53.96;98124.03;5094005;28;19945;-55
2023/03/02 08:47:25;;;;;;;;;;;;;;;5.30;53.42;98126.22;5096511;28;19952;-53
2023/03/02 08:49:53;;;;;;;;;;;;;;;5.12;53.83;98114.13;5099275;28;19982;-55
2023/03/02 08:52:21;;;;;;;;;;;;;;;5.35;53.19;98109.22;5106295;28;19958;-54
2023/03/02 08:54:49;;;;;;;;;;;;;;;5.45;53.43;98106.53;5088323;28;19938;-55
2023/03/02 08:57:19;;;;;;;;;;;;;;;5.44;52.98;98115.69;5105512;28;19941;-58
2023/03/02 08:59:51;;;;;;;;;;;;;;;5.61;52.56;98107.28;5102885;28;20277;-55
2023/03/02 09:02:21;;;;;;;;;;;;;;;5.84;53.00;98100.47;5092777;28;19954;-54
2023/03/02 09:04:49;;;;;;;;;;;;;;;6.02;52.54;98103.41;5105771;28;19924;-52
2023/03/02 09:07:17;;;;;;;;;;;;;;;6.12;51.64;98104.41;5096901;28;19924;-52
2023/03/02 09:09:47;;;;;;;;;;;;;;;6.14;51.59;98100.38;5106102;28;19924;-52
2023/03/02 09:12:15;;;;;;;;;;;;;;;6.19;50.77;98103.03;5100959;28;20015;-56
2023/03/02 09:14:43;;;;;;;;;;;;;;;6.38;51.02;98102.38;5107041;28;20433;-53
2023/03/02 09:17:14;;;;;;;;;;;;;;;6.45;50.84;98102.91;5095606;28;19930;-52
2023/03/02 09:19:42;;;;;;;;;;;;;;;6.35;50.82;98101.06;5102507;28;19928;-53
2023/03/02 09:22:11;;;;;;;;;;;;;;;6.52;50.61;98100.69;5095749;28;19924;-54
2023/03/02 09:24:39;;;;;;;;;;;;;;;6.68;50.46;98101.38;5102294;28;20006;-55
2023/03/02 09:27:07;;;;;;;;;;;;;;;6.71;49.97;98108.91;5099524;28;19924;-52
2023/03/02 09:29:34;;;;;;;;;;;;;;;6.67;50.13;98110.59;5103966;28;19927;-53
2023/03/02 09:32:05;;;;;;;;;;;;;;;6.80;50.26;98102.63;5099077;28;19948;-52
2023/03/02 09:34:34;;;;;;;;;;;;;;;6.92;49.43;98099.56;5098389;28;19928;-53
2023/03/02 09:37:03;;;;;;;;;;;;;;;6.93;48.94;98092.28;5084920;28;19924;-53
2023/03/02 09:39:30;;;;;;;;;;;;;;;7.01;49.14;98099.78;5092490;28;19981;-53
2023/03/02 09:42:02;;;;;;;;;;;;;;;7.07;48.76;98098.63;5098664;28;20270;-53
2023/03/02 09:44:34;;;;;;;;;;;;;;;7.05;49.20;98101.63;5092594;28;20308;-52
2023/03/02 09:47:03;;;;;;;;;;;;;;;6.98;48.99;98098.47;5093963;28;19943;-54
2023/03/02 09:49:36;;;;;;;;;;;;;;;7.29;48.53;98093.56;5096561;28;19928;-58
2023/03/02 09:52:10;;;;;;;;;;;;;;;7.34;48.58;98095.41;5107101;28;20392;-53
2023/03/02 09:54:38;;;;;;;;;;;;;;;7.46;48.24;98095.84;5102066;28;19931;-53
2023/03/02 09:57:10;;;;;;;;;;;;;;;7.51;47.97;98089.56;5093483;28;19924;-53
2023/03/02 09:59:38;;;;;;;;;;;;;;;7.60;47.51;98082.44;5102324;28;19924;-53
2023/03/02 10:02:18;;;;;;;;;;;;;;;7.83;47.26;98091.66;5103452;28;19924;-53
2023/03/02 10:04:47;;;;;;;;;;;;;;;7.76;47.33;98091.19;5104418;28;19957;-52
2023/03/02 10:07:19;;;;;;;;;;;;;;;7.85;47.56;98094.88;5108471;28;19923;-54
2023/03/02 10:09:47;;;;;;;;;;;;;;;8.16;46.52;98086.38;5103006;28;19923;-53
2023/03/02 10:12:20;;;;;;;;;;;;;;;8.29;46.11;98082.94;5100814;28;19974;-53
2023/03/02 10:14:49;;;;;;;;;;;;;;;8.36;45.79;98086.09;5085501;28;19924;-52
2023/03/02 10:17:23;;;;;;;;;;;;;;;8.46;45.77;98068.91;5100545;28;19936;-58
2023/03/02 10:19:52;;;;;;;;;;;;;;;8.55;45.62;98075.28;5103701;28;20308;-53
2023/03/02 10:22:23;;;;;;;;;;;;;;;8.63;45.60;98074.63;5102050;28;19971;-53
2023/03/02 10:24:54;;;;;;;;;;;;;;;8.73;45.50;98070.94;5105182;28;19927;-54
2023/03/02 10:27:24;;;;;;;;;;;;;;;8.66;45.84;98071.31;5103099;28;19954;-55
2023/03/02 10:29:55;;;;;;;;;;;;;;;8.72;45.11;98064.72;5099057;28;19924;-57
2023/03/02 10:32:24;;;;;;;;;;;;;;;8.78;45.13;98063.53;5098487;28;19932;-54
2023/03/02 10:34:52;;;;;;;;;;;;;;;8.76;45.55;98065.75;5092639;28;19976;-55
2023/03/02 10:37:23;;;;;;;;;;;;;;;8.81;45.56;98075.69;5109770;28;19969;-55
2023/03/02 10:39:52;;;;;;;;;;;;;;;8.56;46.40;98066.06;5097644;28;19966;-56
2023/03/02 10:42:20;;;;;;;;;;;;;;;9.09;45.42;98076.59;5102264;28;19938;-53
2023/03/02 10:44:49;;;;;;;;;;;;;;;9.03;45.48;98070.44;5099973;28;20025;-54
2023/03/02 10:47:20;;;;;;;;;;;;;;;9.18;44.71;98064.75;5101456;28;19950;-54
2023/03/02 10:49:48;;;;;;;;;;;;;;;9.32;44.36;98067.50;5104485;28;19923;-53
2023/03/02 10:52:16;;;;;;;;;;;;;;;9.45;44.59;98071.34;5089535;28;19954;-53
2023/03/02 10:54:46;;;;;;;;;;;;;;;9.47;44.39;98069.13;5109152;28;19931;-53
2023/03/02 10:57:27;;;;;;;;;;;;;;;9.52;44.22;98054.66;5089177;28;19932;-53
2023/03/02 10:59:57;;;;;;;;;;;;;;;9.70;43.53;98064.63;5083432;28;19959;-53
2023/03/02 11:02:26;;;;;;;;;;;;;;;9.58;44.33;98061.59;5096287;28;19928;-52
2023/03/02 11:04:55;;;;;;;;;;;;;;;9.74;43.66;98045.81;5105346;28;19923;-58
2023/03/02 11:07:25;;;;;;;;;;;;;;;9.86;43.39;98060.50;5107006;28;20304;-54
2023/03/02 11:09:58;;;;;;;;;;;;;;;10.08;42.93;98067.13;5112240;28;19934;-52
2023/03/02 11:12:25;;;;;;;;;;;;;;;9.87;43.49;98051.25;5101348;28;20354;-52
2023/03/02 11:15:13;;;;;;;;;;;;;;;9.69;43.92;98054.84;5105326;28;21548;-53
2023/03/02 11:17:41;;;;;;;;;;;;;;;9.65;43.89;98053.88;5106067;28;19931;-52
2023/03/02 11:20:09;;;;;;;;;;;;;;;9.78;43.38;98044.91;5101962;28;19930;-54
2023/03/02 11:22:38;;;;;;;;;;;;;;;9.66;43.86;98050.06;5101903;28;19928;-52
2023/03/02 11:25:10;;;;;;;;;;;;;;;9.91;43.30;98046.81;5100106;28;19923;-52
2023/03/02 11:27:39;;;;;;;;;;;;;;;10.12;43.61;98049.09;5110992;28;19924;-53
2023/03/02 11:30:11;;;;;;;;;;;;;;;10.32;42.69;98032.38;5101859;28;20381;-56
2023/03/02 11:32:40;;;;;;;;;;;;;;;10.35;42.62;98034.50;5095313;28;19928;-56
2023/03/02 11:35:09;;;;;;;;;;;;;;;10.46;42.61;98035.06;5108802;28;19924;-54
2023/03/02 11:37:38;;;;;;;;;;;;;;;10.36;42.80;98032.56;5089953;28;19928;-52
2023/03/02 11:40:13;;;;;;;;;;;;;;;10.38;42.17;98038.50;5110896;28;20403;-52
2023/03/02 11:42:42;;;;;;;;;;;;;;;10.39;42.55;98030.06;5109572;28;19928;-52
2023/03/02 11:45:16;;;;;;;;;;;;;;;10.36;43.13;98030.66;5100935;28;19989;-52
2023/03/02 11:47:45;;;;;;;;;;;;;;;10.39;42.47;98023.84;5100925;28;19928;-55
2023/03/02 11:50:18;;;;;;;;;;;;;;;10.54;42.37;98019.94;5098031;28;20403;-53
2023/03/02 11:52:46;;;;;;;;;;;;;;;10.60;42.25;98024.97;5108595;28;20308;-52
2023/03/02 11:55:17;;;;;;;;;;;;;;;10.57;42.33;98019.31;5099448;28;20404;-52
2023/03/02 11:57:48;;;;;;;;;;;;;;;10.73;41.86;98018.66;5104283;28;20265;-52
2023/03/02 12:00:21;;;;;;;;;;;;;;;10.90;42.03;98015.22;5096489;28;19923;-53
2023/03/02 12:02:57;;;;;;;;;;;;;;;11.20;41.71;98010.13;5099080;28;19932;-52
2023/03/02 12:05:26;;;;;;;;;;;;;;;10.98;41.50;98006.34;5101767;28;20369;-56
2023/03/02 12:07:57;;;;;;;;;;;;;;;11.23;41.20;98006.75;5104658;28;21310;-53
2023/03/02 12:10:32;;;;;;;;;;;;;;;11.26;41.42;98003.44;5103077;28;19947;-53
2023/03/02 12:13:00;;;;;;;;;;;;;;;11.24;41.29;98000.25;5102978;28;19928;-53
2023/03/02 12:15:36;;;;;;;;;;;;;;;11.28;41.31;97998.47;5090613;28;19931;-54
2023/03/02 12:18:15;;;;;;;;;;;;;;;11.43;40.67;97994.53;5089660;28;19953;-52
2023/03/02 12:20:43;;;;;;;;;;;;;;;11.53;40.52;97989.63;5097118;28;19924;-55
2023/03/02 12:23:20;;;;;;;;;;;;;;;11.71;40.46;97989.66;5103197;28;19924;-53
2023/03/02 12:25:50;;;;;;;;;;;;;;;11.78;40.13;97988.09;5104777;28;19923;-54
2023/03/02 12:28:28;;;;;;;;;;;;;;;11.78;40.00;97984.56;5099262;28;19945;-53
2023/03/02 12:31:08;;;;;;;;;;;;;;;11.76;40.66;97984.84;5096808;28;19928;-53
2023/03/02 12:33:44;;;;;;;;;;;;;;;11.89;40.27;97988.63;5104678;28;20383;-52
2023/03/02 12:36:14;;;;;;;;;;;;;;;12.05;39.43;97981.59;5092640;28;19928;-53
2023/03/02 12:38:44;;;;;;;;;;;;;;;11.83;39.72;97984.44;5100064;28;19925;-54
2023/03/02 12:41:24;;;;;;;;;;;;;;;11.75;40.15;97993.34;5080583;28;19928;-52
2023/03/02 12:43:56;;;;;;;;;;;;;;;11.64;40.13;97975.72;5107235;28;19934;-52
2023/03/02 12:46:26;;;;;;;;;;;;;;;11.73;39.90;97979.28;5070585;28;19946;-52
2023/03/02 12:48:58;;;;;;;;;;;;;;;11.85;40.43;97981.41;5100636;28;19932;-52
2023/03/02 12:51:27;;;;;;;;;;;;;;;11.86;39.96;97966.66;5072986;28;20555;-53
2023/03/02 12:54:04;;;;;;;;;;;;;;;11.87;39.98;97971.78;5096445;28;19935;-52
2023/03/02 12:56:34;;;;;;;;;;;;;;;11.70;40.13;97966.28;5091416;28;20001;-54
2023/03/02 12:59:02;;;;;;;;;;;;;;;11.69;40.36;97968.22;5107376;28;20296;-52
2023/03/02 13:01:31;;;;;;;;;;;;;;;11.83;40.49;97962.66;5083229;28;19931;-53
2023/03/02 13:03:59;;;;;;;;;;;;;;;11.71;40.28;97960.50;5108318;28;19930;-55
2023/03/02 13:06:27;;;;;;;;;;;;;;;11.84;40.33;97958.03;5099866;28;19947;-53